VTSS/HDY METAR and TAF weather

Enter ICAO airport designator
Station Type Date Time Source
VTSS METAR 2018/12/11 20:00 UTC NOAA

VTSS 112000Z 00000KT 9999 -RA SCT020 SCT028 BKN100 25/24 Q1010 NOSIG


Station Type Date Time Source
VTSS Decoded METAR 2018/12/11 20:00 UTC NOAA

Hat Yai, Thailand (VTSS) 06-55N 100-26E 35M
Dec 11, 2018 - 03:00 PM EST / 2018.12.11 2000 UTC
Wind: Calm:0
Visibility: greater than 7 mile(s):0
Sky conditions: mostly cloudy
Weather: light rain
Temperature: 77 F (25 C)
Dew Point: 75 F (24 C)
Relative Humidity: 94%
Pressure (altimeter): 29.83 in. Hg (1010 hPa)
ob: VTSS 112000Z 00000KT 9999 -RA SCT020 SCT028 BKN100 25/24 Q1010 NOSIG
cycle: 20

Station Type Date Time Source
VTSS TAF 2018/12/11 18:36 UTC NOAA

TAF VTSS 111700Z 1118/1218 27003KT 9999 FEW020 SCT100
TEMPO 1118/1124 5000 RA SCT015 BKN100
BECMG 1204/1206 06010KT
BECMG 1213/1215 27003KT


Example: see airport list